createdAt,value
2023-11-28T00:01:41.875Z,80.16
2023-11-28T00:04:08.884Z,80.68
2023-11-28T00:06:36.412Z,80.00
2023-11-28T00:09:04.122Z,80.18
2023-11-28T00:11:31.169Z,80.28
2023-11-28T00:14:00.777Z,79.84
2023-11-28T00:16:27.672Z,80.10
2023-11-28T00:18:54.639Z,80.46
2023-11-28T00:21:23.891Z,80.09
2023-11-28T00:23:50.685Z,80.40
2023-11-28T00:26:17.392Z,80.00
2023-11-28T00:28:44.263Z,80.44
2023-11-28T00:31:11.193Z,80.65
2023-11-28T00:33:40.446Z,80.69
2023-11-28T00:36:07.228Z,80.76
2023-11-28T00:38:33.883Z,80.42
2023-11-28T00:41:00.770Z,81.07
2023-11-28T00:43:28.199Z,80.93
2023-11-28T00:45:54.910Z,80.28
2023-11-28T00:48:25.586Z,80.74
2023-11-28T00:50:52.506Z,80.55
2023-11-28T00:53:19.601Z,80.52
2023-11-28T00:55:46.486Z,81.37
2023-11-28T00:58:13.201Z,81.10
2023-11-28T01:00:39.919Z,80.96
2023-11-28T01:03:06.862Z,81.27
2023-11-28T01:05:33.748Z,81.33
2023-11-28T01:08:01.110Z,80.88
2023-11-28T01:10:28.117Z,81.30
2023-11-28T01:12:54.812Z,81.39
2023-11-28T01:15:22.351Z,81.61
2023-11-28T01:17:49.225Z,81.20
2023-11-28T01:20:18.458Z,81.47
2023-11-28T01:22:45.610Z,80.91
2023-11-28T01:25:12.475Z,81.11
2023-11-28T01:27:42.089Z,81.14
2023-11-28T01:30:13.869Z,81.07
2023-11-28T01:32:43.888Z,81.61
2023-11-28T01:35:10.975Z,81.35
2023-11-28T01:37:38.102Z,81.38
2023-11-28T01:40:05.457Z,81.05
2023-11-28T01:42:32.315Z,81.09
2023-11-28T01:44:58.970Z,81.04
2023-11-28T01:47:27.305Z,81.56
2023-11-28T01:49:54.642Z,81.64
2023-11-28T01:52:25.452Z,81.79
2023-11-28T01:54:54.879Z,81.48
2023-11-28T01:57:23.132Z,81.81
2023-11-28T01:59:50.017Z,81.48
2023-11-28T02:02:17.180Z,81.51
2023-11-28T02:04:44.689Z,81.20
2023-11-28T02:07:11.905Z,81.45
2023-11-28T02:09:40.725Z,81.26
2023-11-28T02:12:08.036Z,81.35
2023-11-28T02:14:45.195Z,81.34
2023-11-28T02:17:15.505Z,81.04
2023-11-28T02:19:43.012Z,80.84
2023-11-28T02:22:11.243Z,81.09
2023-11-28T02:24:44.352Z,81.27
2023-11-28T02:27:11.168Z,81.39
2023-11-28T02:29:43.525Z,81.13
2023-11-28T02:32:12.789Z,80.99
2023-11-28T02:34:40.389Z,80.83
2023-11-28T02:37:10.412Z,80.97
2023-11-28T02:39:39.607Z,81.18
2023-11-28T02:42:06.477Z,80.97
2023-11-28T02:44:33.170Z,80.69
2023-11-28T02:47:02.304Z,81.38
2023-11-28T02:49:29.050Z,81.29
2023-11-28T02:51:55.709Z,80.66
2023-11-28T02:54:22.582Z,81.21
2023-11-28T02:56:52.767Z,81.08
2023-11-28T02:59:26.100Z,80.82
2023-11-28T03:01:56.044Z,81.08
2023-11-28T03:04:23.062Z,81.14
2023-11-28T03:06:50.380Z,81.48
2023-11-28T03:09:17.024Z,80.88
2023-11-28T03:11:44.264Z,80.89
2023-11-28T03:14:11.695Z,80.37
2023-11-28T03:16:38.649Z,80.76
2023-11-28T03:19:07.527Z,80.82
2023-11-28T03:21:34.642Z,80.82
2023-11-28T03:24:01.642Z,80.54
2023-11-28T03:26:29.055Z,80.71
2023-11-28T03:28:55.966Z,80.44
2023-11-28T03:31:25.254Z,80.62
2023-11-28T03:33:52.338Z,80.58
2023-11-28T03:36:19.588Z,80.99
2023-11-28T03:38:49.306Z,80.52
2023-11-28T03:41:16.546Z,80.63
2023-11-28T03:43:43.520Z,80.96
2023-11-28T03:46:13.124Z,80.71
2023-11-28T03:48:40.223Z,81.16
2023-11-28T03:51:09.379Z,81.17
2023-11-28T03:53:39.169Z,80.95
2023-11-28T03:56:09.376Z,80.44
2023-11-28T03:58:36.684Z,79.90
2023-11-28T04:01:04.100Z,80.46
2023-11-28T04:03:33.238Z,80.31
2023-11-28T04:06:00.316Z,80.41
2023-11-28T04:08:27.013Z,80.28
2023-11-28T04:10:53.732Z,79.97
2023-11-28T04:13:22.467Z,80.13
2023-11-28T04:15:51.392Z,79.85
2023-11-28T04:18:18.043Z,79.56
2023-11-28T04:20:44.802Z,80.24
2023-11-28T04:23:11.511Z,80.11
2023-11-28T04:25:38.173Z,79.90
2023-11-28T04:28:05.221Z,79.87
2023-11-28T04:30:31.886Z,80.59
2023-11-28T04:32:58.901Z,79.99
2023-11-28T04:35:25.522Z,79.95
2023-11-28T04:37:52.206Z,80.38
2023-11-28T04:40:20.952Z,80.11
2023-11-28T04:42:47.729Z,80.51
2023-11-28T04:45:17.096Z,80.61
2023-11-28T04:47:44.149Z,80.16
2023-11-28T04:50:13.172Z,79.95
2023-11-28T04:52:41.050Z,80.54
2023-11-28T04:58:28.429Z,80.28
2023-11-28T05:00:55.160Z,80.65
2023-11-28T05:03:25.202Z,80.96
2023-11-28T05:05:52.036Z,80.86
2023-11-28T05:08:20.953Z,81.12
2023-11-28T05:10:48.553Z,80.86
2023-11-28T05:13:15.279Z,80.83
2023-11-28T05:15:44.515Z,80.51
2023-11-28T05:18:11.410Z,80.92
2023-11-28T05:20:38.371Z,80.92
2023-11-28T05:23:06.562Z,81.47
2023-11-28T05:25:36.974Z,81.63
2023-11-28T05:28:03.827Z,81.32
2023-11-28T05:30:30.595Z,81.24
2023-11-28T05:32:59.634Z,81.66
2023-11-28T05:35:29.403Z,81.24
2023-11-28T05:37:56.689Z,82.00
2023-11-28T05:40:25.931Z,82.30
2023-11-28T05:42:58.996Z,81.87
2023-11-28T05:45:27.138Z,82.00
2023-11-28T05:47:53.999Z,81.56
2023-11-28T05:50:28.758Z,81.93
2023-11-28T05:52:55.525Z,81.67
2023-11-28T05:55:23.599Z,81.93
2023-11-28T05:57:52.545Z,81.83
2023-11-28T06:00:19.915Z,81.79
2023-11-28T06:02:47.180Z,82.45
2023-11-28T06:05:14.389Z,82.26
2023-11-28T06:07:44.270Z,82.21
2023-11-28T06:10:12.119Z,82.26
2023-11-28T06:12:39.454Z,82.05
2023-11-28T06:15:08.462Z,81.81
2023-11-28T06:17:38.231Z,81.85
2023-11-28T06:20:06.792Z,81.87
2023-11-28T06:22:36.955Z,82.18
2023-11-28T06:25:06.263Z,82.48
2023-11-28T06:27:32.917Z,82.91
2023-11-28T06:29:59.595Z,81.97
2023-11-28T06:32:28.840Z,82.70
2023-11-28T06:34:55.638Z,82.80
2023-11-28T06:37:24.114Z,83.24
2023-11-28T06:39:52.498Z,82.23
2023-11-28T06:42:21.652Z,82.21
2023-11-28T06:44:48.942Z,82.70
2023-11-28T06:47:21.768Z,82.65
2023-11-28T06:49:49.390Z,82.84
2023-11-28T06:52:16.539Z,82.28
2023-11-28T06:54:46.557Z,82.17
2023-11-28T06:57:13.598Z,82.27
2023-11-28T06:59:44.879Z,82.91
2023-11-28T07:02:11.896Z,82.25
2023-11-28T07:04:38.734Z,82.59
2023-11-28T07:07:05.540Z,82.81
2023-11-28T07:09:32.618Z,82.85
2023-11-28T07:11:59.501Z,82.33
2023-11-28T07:14:26.914Z,82.51
2023-11-28T07:16:55.999Z,82.44
2023-11-28T07:19:22.720Z,82.79
2023-11-28T07:21:53.058Z,82.65
2023-11-28T07:24:24.046Z,83.01
2023-11-28T07:26:50.833Z,82.77
2023-11-28T07:29:20.321Z,82.55
2023-11-28T07:31:47.093Z,82.51
2023-11-28T07:34:13.819Z,82.20
2023-11-28T07:36:40.466Z,83.03
2023-11-28T07:39:10.890Z,82.48
2023-11-28T07:41:37.598Z,82.14
2023-11-28T07:44:12.639Z,81.80
2023-11-28T07:46:41.537Z,82.34
2023-11-28T07:49:08.270Z,81.90
2023-11-28T07:51:35.064Z,82.46
2023-11-28T07:54:02.044Z,82.27
2023-11-28T07:56:30.912Z,82.09
2023-11-28T07:58:57.632Z,82.11
2023-11-28T08:01:24.372Z,81.98
2023-11-28T08:03:53.682Z,82.87
2023-11-28T08:06:20.552Z,83.02
2023-11-28T08:08:47.353Z,82.81
2023-11-28T08:11:14.165Z,83.10
2023-11-28T08:13:43.710Z,82.67
2023-11-28T08:16:10.706Z,82.65
2023-11-28T08:18:41.024Z,82.92
2023-11-28T08:21:09.980Z,82.72
2023-11-28T08:23:40.040Z,83.07
2023-11-28T08:26:07.267Z,82.45
2023-11-28T08:28:34.222Z,82.65
2023-11-28T08:31:01.630Z,82.48
2023-11-28T08:33:35.638Z,82.64
2023-11-28T08:36:06.715Z,83.26
2023-11-28T08:38:34.821Z,83.02
2023-11-28T08:41:04.973Z,83.75
2023-11-28T08:43:32.054Z,83.33
2023-11-28T08:45:58.878Z,83.49
2023-11-28T08:48:25.939Z,82.85
2023-11-28T08:50:52.645Z,82.64
2023-11-28T08:53:19.553Z,83.39
2023-11-28T08:55:47.343Z,82.60
2023-11-28T08:58:14.110Z,82.94
2023-11-28T09:00:41.181Z,82.54
2023-11-28T09:03:08.312Z,82.12
2023-11-28T09:05:37.612Z,82.09
2023-11-28T09:08:04.758Z,82.70
2023-11-28T09:10:31.985Z,82.20
2023-11-28T09:12:58.796Z,82.48
2023-11-28T09:15:25.568Z,82.60
2023-11-28T09:17:54.950Z,82.56
2023-11-28T09:20:21.904Z,82.36
2023-11-28T09:22:48.930Z,82.96
2023-11-28T09:25:16.637Z,82.50
2023-11-28T09:27:43.587Z,82.46
2023-11-28T09:30:10.685Z,82.45
2023-11-28T09:32:39.834Z,82.11
2023-11-28T09:35:08.208Z,82.06
2023-11-28T09:37:36.987Z,82.41
2023-11-28T09:40:09.114Z,82.08
2023-11-28T09:42:39.255Z,82.06
2023-11-28T09:45:06.923Z,81.02
2023-11-28T09:47:37.581Z,80.99
2023-11-28T09:50:13.760Z,80.68
2023-11-28T09:52:44.253Z,80.02
2023-11-28T09:55:15.193Z,79.49
2023-11-28T09:57:52.207Z,78.97
2023-11-28T10:00:21.469Z,78.20
2023-11-28T10:02:55.903Z,77.84
2023-11-28T10:05:22.856Z,77.57
2023-11-28T10:07:54.355Z,77.54
2023-11-28T10:10:25.134Z,77.01
2023-11-28T10:12:55.419Z,76.45
2023-11-28T10:15:27.703Z,76.08
2023-11-28T10:17:55.585Z,76.24
2023-11-28T10:20:25.737Z,75.22
2023-11-28T10:22:54.197Z,75.41
2023-11-28T10:25:26.730Z,74.06
2023-11-28T10:28:00.144Z,73.75
2023-11-28T10:30:29.062Z,73.35
2023-11-28T10:33:00.456Z,72.78
2023-11-28T10:35:44.246Z,73.39
2023-11-28T10:38:19.534Z,73.77
2023-11-28T10:40:50.693Z,74.35
2023-11-28T10:43:20.796Z,73.40
2023-11-28T10:45:48.009Z,73.07
2023-11-28T10:48:15.342Z,73.47
2023-11-28T10:50:43.537Z,72.74
2023-11-28T10:53:13.015Z,73.13
2023-11-28T10:55:51.166Z,72.54
2023-11-28T10:58:18.822Z,73.11
2023-11-28T11:00:47.684Z,72.94
2023-11-28T11:03:16.588Z,72.07
2023-11-28T11:05:46.895Z,72.26
2023-11-28T11:08:14.112Z,72.04
2023-11-28T11:10:42.049Z,71.90
2023-11-28T11:13:14.313Z,71.68
2023-11-28T11:15:54.446Z,70.90
2023-11-28T11:18:30.379Z,70.58
2023-11-28T11:21:05.486Z,70.86
2023-11-28T11:23:36.746Z,71.38
2023-11-28T11:26:03.558Z,70.17
2023-11-28T11:28:30.473Z,70.29
2023-11-28T11:31:00.037Z,70.26
2023-11-28T11:33:27.069Z,69.66
2023-11-28T11:36:11.509Z,68.42
2023-11-28T11:38:38.439Z,69.74
2023-11-28T11:41:09.503Z,69.42
2023-11-28T11:43:38.167Z,69.54
2023-11-28T11:46:14.093Z,69.87
2023-11-28T11:48:42.931Z,69.53
2023-11-28T11:51:11.186Z,69.68
2023-11-28T11:53:44.504Z,68.99
2023-11-28T11:56:14.271Z,69.30
2023-11-28T11:58:43.144Z,68.99
2023-11-28T12:01:13.010Z,69.16
2023-11-28T12:03:39.749Z,68.49
2023-11-28T12:06:07.377Z,68.31
2023-11-28T12:08:38.213Z,68.57
2023-11-28T12:11:10.339Z,68.75
2023-11-28T12:13:39.205Z,68.50
2023-11-28T12:16:06.596Z,68.25
2023-11-28T12:18:34.246Z,67.84
2023-11-28T12:21:01.581Z,67.41
2023-11-28T12:23:28.590Z,67.25
2023-11-28T12:25:58.982Z,67.16
2023-11-28T12:28:29.781Z,66.98
2023-11-28T12:30:57.451Z,67.05
2023-11-28T12:33:27.367Z,66.19
2023-11-28T12:35:54.257Z,65.44
2023-11-28T12:38:26.104Z,66.17
2023-11-28T12:41:02.562Z,65.96
2023-11-28T12:43:36.654Z,66.21
2023-11-28T12:46:03.651Z,66.22
2023-11-28T12:48:31.050Z,66.54
2023-11-28T12:51:01.120Z,66.87
2023-11-28T12:53:28.580Z,66.92
2023-11-28T12:56:00.604Z,66.38
2023-11-28T12:58:27.576Z,66.94
2023-11-28T13:00:56.068Z,66.95
2023-11-28T13:03:23.037Z,66.91
2023-11-28T13:05:52.080Z,67.08
2023-11-28T13:08:19.984Z,66.58
2023-11-28T13:10:46.864Z,66.68
2023-11-28T13:13:17.773Z,67.64
2023-11-28T13:15:47.689Z,67.47
2023-11-28T13:18:16.087Z,66.93
2023-11-28T13:20:42.962Z,66.58
2023-11-28T13:23:09.975Z,66.43
2023-11-28T13:25:36.910Z,66.27
2023-11-28T13:28:08.532Z,66.63
2023-11-28T13:30:35.313Z,67.09
2023-11-28T13:33:02.331Z,66.60
2023-11-28T13:35:30.821Z,66.77
2023-11-28T13:37:57.792Z,65.68
2023-11-28T13:40:24.708Z,65.65
2023-11-28T13:42:51.419Z,65.55
2023-11-28T13:45:20.349Z,66.17
2023-11-28T13:47:47.195Z,65.81
2023-11-28T13:50:15.067Z,66.60
2023-11-28T13:52:43.194Z,66.88
2023-11-28T13:55:09.945Z,66.40
2023-11-28T13:57:39.286Z,66.25
2023-11-28T14:00:09.071Z,66.75
2023-11-28T14:02:43.614Z,66.54
2023-11-28T14:05:12.925Z,67.21
2023-11-28T14:07:42.868Z,67.24
2023-11-28T14:10:10.396Z,67.02
2023-11-28T14:12:38.825Z,68.28
2023-11-28T14:15:09.759Z,67.79
2023-11-28T14:17:37.883Z,68.03
2023-11-28T14:20:09.201Z,68.38
2023-11-28T14:22:45.360Z,68.33
2023-11-28T14:25:14.815Z,68.43
2023-11-28T14:27:43.586Z,69.21
2023-11-28T14:30:12.229Z,68.63
2023-11-28T14:32:41.037Z,69.06
2023-11-28T14:35:09.716Z,69.50
2023-11-28T14:37:36.721Z,69.11
2023-11-28T14:40:11.948Z,69.36
2023-11-28T14:42:39.335Z,69.72
2023-11-28T14:45:09.319Z,69.99
2023-11-28T14:47:37.913Z,69.86
2023-11-28T14:50:08.618Z,69.76
2023-11-28T14:52:35.518Z,70.16
2023-11-28T14:55:07.407Z,70.31
2023-11-28T14:57:34.231Z,70.27
2023-11-28T15:00:02.156Z,69.95
2023-11-28T15:02:29.452Z,70.02
2023-11-28T15:04:56.408Z,69.90
2023-11-28T15:07:25.768Z,69.91
2023-11-28T15:09:53.012Z,70.14
2023-11-28T15:12:20.045Z,69.95
2023-11-28T15:14:47.031Z,69.79
2023-11-28T15:17:16.566Z,69.75
2023-11-28T15:19:44.368Z,69.65
2023-11-28T15:22:19.618Z,70.20
2023-11-28T15:24:51.456Z,70.47
2023-11-28T15:27:21.487Z,70.94
2023-11-28T15:29:52.923Z,70.79
2023-11-28T15:32:23.989Z,71.56
2023-11-28T15:34:51.219Z,71.28
2023-11-28T15:37:18.071Z,71.33
2023-11-28T15:39:44.718Z,71.00
2023-11-28T15:42:13.970Z,71.03
2023-11-28T15:44:40.679Z,71.18
2023-11-28T15:47:08.485Z,71.29
2023-11-28T15:49:44.739Z,71.19
2023-11-28T15:52:15.554Z,71.40
2023-11-28T15:54:45.696Z,71.54
2023-11-28T15:57:13.213Z,71.11
2023-11-28T15:59:44.535Z,71.20
2023-11-28T16:02:12.260Z,71.39
2023-11-28T16:04:41.515Z,71.22
2023-11-28T16:07:09.275Z,71.41
2023-11-28T16:09:36.346Z,71.52
2023-11-28T16:12:03.562Z,71.49
2023-11-28T16:14:30.526Z,72.24
2023-11-28T16:16:57.376Z,71.43
2023-11-28T16:19:24.126Z,72.11
2023-11-28T16:21:51.192Z,72.29
2023-11-28T16:24:17.985Z,72.19
2023-11-28T16:26:47.137Z,72.02
2023-11-28T16:29:14.666Z,73.01
2023-11-28T16:31:41.452Z,72.88
2023-11-28T16:34:08.894Z,72.74
2023-11-28T16:36:35.816Z,72.47
2023-11-28T16:39:07.022Z,72.72
2023-11-28T16:41:37.241Z,72.36
2023-11-28T16:44:05.029Z,72.72
2023-11-28T16:46:32.453Z,72.24
2023-11-28T16:49:01.738Z,72.85
2023-11-28T16:51:30.574Z,72.73
2023-11-28T16:53:57.875Z,72.32
2023-11-28T16:56:27.540Z,72.57
2023-11-28T16:58:54.756Z,71.33
2023-11-28T17:01:24.295Z,70.59
2023-11-28T17:03:51.440Z,70.70
2023-11-28T17:06:18.352Z,71.07
2023-11-28T17:08:47.686Z,70.99
2023-11-28T17:11:17.891Z,70.96
2023-11-28T17:13:44.698Z,70.97
2023-11-28T17:16:14.127Z,70.71
2023-11-28T17:18:40.913Z,71.00
2023-11-28T17:21:08.080Z,70.54
2023-11-28T17:23:37.781Z,70.22
2023-11-28T17:26:06.125Z,70.88
2023-11-28T17:28:35.481Z,70.55
2023-11-28T17:31:02.210Z,70.29
2023-11-28T17:33:31.215Z,70.24
2023-11-28T17:36:00.383Z,70.48
2023-11-28T17:38:29.927Z,70.50
2023-11-28T17:40:56.850Z,70.48
2023-11-28T17:43:23.716Z,70.44
2023-11-28T17:45:50.973Z,69.67
2023-11-28T17:48:17.841Z,69.51
2023-11-28T17:50:44.665Z,69.73
2023-11-28T17:53:11.470Z,69.37
2023-11-28T17:55:41.648Z,69.20
2023-11-28T17:58:09.202Z,68.47
2023-11-28T18:00:36.526Z,68.54
2023-11-28T18:03:07.363Z,68.85
2023-11-28T18:05:38.736Z,69.00
2023-11-28T18:08:05.793Z,69.28
2023-11-28T18:10:32.935Z,68.48
2023-11-28T18:12:59.849Z,68.70
2023-11-28T18:15:32.615Z,68.75
2023-11-28T18:18:01.476Z,68.76
2023-11-28T18:20:28.714Z,68.65
2023-11-28T18:23:00.136Z,68.76
2023-11-28T18:25:27.123Z,68.43
2023-11-28T18:27:55.590Z,67.92
2023-11-28T18:30:22.917Z,68.15
2023-11-28T18:32:49.611Z,68.43
2023-11-28T18:35:19.484Z,67.40
2023-11-28T18:37:46.326Z,67.04
2023-11-28T18:40:14.213Z,67.15
2023-11-28T18:42:41.259Z,67.01
2023-11-28T18:45:08.372Z,67.00
2023-11-28T18:47:35.299Z,67.14
2023-11-28T18:50:04.884Z,66.72
2023-11-28T18:52:34.079Z,67.35
2023-11-28T18:55:03.986Z,67.41
2023-11-28T18:57:30.690Z,67.00
2023-11-28T18:59:59.753Z,67.29
2023-11-28T19:02:26.675Z,67.04
2023-11-28T19:04:53.977Z,66.75
2023-11-28T19:07:20.677Z,66.36
2023-11-28T19:09:47.994Z,67.11
2023-11-28T19:12:15.493Z,66.94
2023-11-28T19:14:45.645Z,66.99
2023-11-28T19:17:15.379Z,66.76
2023-11-28T19:19:42.378Z,66.67
2023-11-28T19:22:09.101Z,66.88
2023-11-28T19:24:36.493Z,66.48
2023-11-28T19:27:07.808Z,66.55
2023-11-28T19:29:35.172Z,66.15
2023-11-28T19:32:02.140Z,66.00
2023-11-28T19:34:31.189Z,65.86
2023-11-28T19:36:58.068Z,65.29
2023-11-28T19:39:28.773Z,65.04
2023-11-28T19:41:56.690Z,65.39
2023-11-28T19:44:24.441Z,65.24
2023-11-28T19:46:51.712Z,64.92
2023-11-28T19:49:18.588Z,64.74
2023-11-28T19:51:46.905Z,65.13
2023-11-28T19:54:15.767Z,64.93
2023-11-28T19:56:45.512Z,64.29
2023-11-28T19:59:12.750Z,64.73
2023-11-28T20:01:42.055Z,65.67
2023-11-28T20:04:09.084Z,65.43
2023-11-28T20:06:38.917Z,65.78
2023-11-28T20:09:08.887Z,65.68
2023-11-28T20:11:39.327Z,65.85
2023-11-28T20:14:08.610Z,65.88
2023-11-28T20:16:41.825Z,66.17
2023-11-28T20:19:08.811Z,66.16
2023-11-28T20:21:37.724Z,65.89
2023-11-28T20:24:07.595Z,66.52
2023-11-28T20:26:34.293Z,66.46
2023-11-28T20:29:01.909Z,66.57
2023-11-28T20:31:28.665Z,66.62
2023-11-28T20:33:55.375Z,67.11
2023-11-28T20:36:24.749Z,66.53
2023-11-28T20:38:51.535Z,67.40
2023-11-28T20:41:18.624Z,67.42
2023-11-28T20:43:47.092Z,67.08
2023-11-28T20:46:18.611Z,67.49
2023-11-28T20:48:45.911Z,67.18
2023-11-28T20:51:12.664Z,67.33
2023-11-28T20:53:39.662Z,67.55
2023-11-28T20:56:07.204Z,67.05
2023-11-28T20:58:36.072Z,67.59
2023-11-28T21:01:15.443Z,68.22
2023-11-28T21:03:42.451Z,68.53
2023-11-28T21:06:14.045Z,68.40
2023-11-28T21:08:41.580Z,68.86
2023-11-28T21:11:08.501Z,69.29
2023-11-28T21:13:35.288Z,68.76
2023-11-28T21:16:01.968Z,68.83
2023-11-28T21:18:28.800Z,69.30
2023-11-28T21:20:55.679Z,68.64
2023-11-28T21:23:22.575Z,69.07
2023-11-28T21:25:49.599Z,69.00
2023-11-28T21:28:16.218Z,69.50
2023-11-28T21:30:42.993Z,69.10
2023-11-28T21:33:14.453Z,69.31
2023-11-28T21:35:42.588Z,69.32
2023-11-28T21:38:12.408Z,69.22
2023-11-28T21:40:44.133Z,68.83
2023-11-28T21:43:11.412Z,69.74
2023-11-28T21:45:40.884Z,69.64
2023-11-28T21:48:15.488Z,69.69
2023-11-28T21:50:51.609Z,70.34
2023-11-28T21:53:19.235Z,69.85
2023-11-28T21:55:46.036Z,70.51
2023-11-28T21:58:12.947Z,69.90
2023-11-28T22:00:39.692Z,70.22
2023-11-28T22:03:10.408Z,69.81
2023-11-28T22:05:38.353Z,69.76
2023-11-28T22:08:05.642Z,70.48
2023-11-28T22:10:32.312Z,70.60
2023-11-28T22:13:01.994Z,70.95
2023-11-28T22:15:31.068Z,70.28
2023-11-28T22:18:03.360Z,70.09
2023-11-28T22:20:35.822Z,70.24
2023-11-28T22:23:03.220Z,69.82
2023-11-28T22:25:30.293Z,70.57
2023-11-28T22:27:57.699Z,70.51
2023-11-28T22:30:24.348Z,71.24
2023-11-28T22:32:51.447Z,70.39
2023-11-28T22:35:18.633Z,70.98
2023-11-28T22:37:51.081Z,70.50
2023-11-28T22:40:18.375Z,71.38
2023-11-28T22:42:48.167Z,71.14
2023-11-28T22:45:15.403Z,72.08
2023-11-28T22:47:42.452Z,71.77
2023-11-28T22:50:09.802Z,71.08
2023-11-28T22:52:40.459Z,70.63
2023-11-28T22:55:09.076Z,71.66
2023-11-28T22:57:35.868Z,71.35
2023-11-28T23:00:03.085Z,71.40
2023-11-28T23:02:30.672Z,71.75
2023-11-28T23:04:57.880Z,71.98
2023-11-28T23:07:24.564Z,71.51
2023-11-28T23:09:51.217Z,72.25
2023-11-28T23:12:20.443Z,71.69
2023-11-28T23:14:47.257Z,71.36
2023-11-28T23:17:14.423Z,71.58
2023-11-28T23:19:44.413Z,71.90
2023-11-28T23:22:11.168Z,72.07
2023-11-28T23:24:39.493Z,72.95
2023-11-28T23:27:06.205Z,73.18
2023-11-28T23:29:33.344Z,73.67
2023-11-28T23:32:03.348Z,73.15
2023-11-28T23:34:32.433Z,72.70
2023-11-28T23:36:59.121Z,73.50
2023-11-28T23:39:43.708Z,73.00
2023-11-28T23:42:12.971Z,72.04
2023-11-28T23:44:39.811Z,73.34
2023-11-28T23:47:06.897Z,72.74
2023-11-28T23:49:35.827Z,73.24
2023-11-28T23:52:02.972Z,73.05
2023-11-28T23:54:30.249Z,73.57
2023-11-28T23:56:57.272Z,73.93
2023-11-28T23:59:24.032Z,73.28
